createdAt,value
2023-02-23T00:00:53.247Z,-11.93
2023-02-23T00:03:25.686Z,-11.92
2023-02-23T00:05:58.056Z,-11.89
2023-02-23T00:08:30.661Z,-11.84
2023-02-23T00:11:03.878Z,-11.82
2023-02-23T00:13:38.583Z,-11.84
2023-02-23T00:16:15.788Z,-11.84
2023-02-23T00:18:55.973Z,-11.94
2023-02-23T00:21:38.989Z,-12.02
2023-02-23T00:24:15.120Z,-12.01
2023-02-23T00:26:48.174Z,-11.99
2023-02-23T00:29:21.345Z,-11.85
2023-02-23T00:31:53.777Z,-11.96
2023-02-23T00:34:25.753Z,-11.96
2023-02-23T00:36:57.916Z,-11.99
2023-02-23T00:39:30.868Z,-12.02
2023-02-23T00:42:04.140Z,-12.04
2023-02-23T00:44:39.698Z,-11.97
2023-02-23T00:47:11.720Z,-11.96
2023-02-23T00:49:45.159Z,-12.05
2023-02-23T00:52:17.182Z,-12.01
2023-02-23T00:54:50.222Z,-12.01
2023-02-23T00:57:22.735Z,-11.98
2023-02-23T00:59:54.738Z,-11.87
2023-02-23T01:02:30.938Z,-11.92
2023-02-23T01:05:03.170Z,-11.98
2023-02-23T01:07:34.963Z,-12.07
2023-02-23T01:10:13.001Z,-12.02
2023-02-23T01:12:45.130Z,-11.98
2023-02-23T01:15:17.633Z,-12.05
2023-02-23T01:17:49.664Z,-12.09
2023-02-23T01:20:21.658Z,-12.06
2023-02-23T01:22:53.713Z,-12.09
2023-02-23T01:25:27.654Z,-12.09
2023-02-23T01:28:00.515Z,-12.14
2023-02-23T01:30:32.663Z,-12.13
2023-02-23T01:33:05.503Z,-12.13
2023-02-23T01:35:38.272Z,-12.13
2023-02-23T01:38:11.504Z,-12.03
2023-02-23T01:40:44.740Z,-12.06
2023-02-23T01:43:21.744Z,-12.06
2023-02-23T01:45:56.655Z,-12.07
2023-02-23T01:48:40.549Z,-12.16
2023-02-23T01:51:15.933Z,-12.20
2023-02-23T01:53:51.241Z,-12.32
2023-02-23T01:56:26.567Z,-12.45
2023-02-23T01:59:01.443Z,-12.41
2023-02-23T02:01:33.785Z,-12.35
2023-02-23T02:04:08.842Z,-12.26
2023-02-23T02:06:41.748Z,-12.26
2023-02-23T02:09:19.715Z,-12.23
2023-02-23T02:11:54.366Z,-12.27
2023-02-23T02:14:30.950Z,-12.23
2023-02-23T02:17:25.638Z,-12.22
2023-02-23T02:20:05.169Z,-12.29
2023-02-23T02:22:49.206Z,-12.28
2023-02-23T02:25:40.468Z,-12.19
2023-02-23T02:28:32.981Z,-12.19
2023-02-23T02:31:30.377Z,-12.23
2023-02-23T02:34:22.776Z,-12.34
2023-02-23T02:37:00.486Z,-12.28
2023-02-23T02:39:53.778Z,-12.34
2023-02-23T02:42:35.163Z,-12.36
2023-02-23T02:45:11.127Z,-12.27
2023-02-23T02:48:04.049Z,-12.17
2023-02-23T02:50:50.098Z,-12.27
2023-02-23T02:53:31.060Z,-12.22
2023-02-23T02:56:06.168Z,-12.36
2023-02-23T02:58:42.931Z,-12.46
2023-02-23T03:01:35.875Z,-12.53
2023-02-23T03:04:44.104Z,-12.53
2023-02-23T03:07:42.241Z,-12.55
2023-02-23T03:10:35.694Z,-12.56
2023-02-23T03:13:38.068Z,-12.60
2023-02-23T03:16:33.710Z,-12.53
2023-02-23T03:19:46.139Z,-12.57
2023-02-23T03:22:50.566Z,-12.64
2023-02-23T03:26:02.490Z,-12.71
2023-02-23T03:28:57.758Z,-12.81
2023-02-23T03:32:07.032Z,-12.87
2023-02-23T03:35:08.916Z,-12.92
2023-02-23T03:38:04.259Z,-12.95
2023-02-23T03:40:57.144Z,-12.90
2023-02-23T03:43:52.854Z,-12.94
2023-02-23T03:46:44.776Z,-12.92
2023-02-23T03:49:36.907Z,-12.96
2023-02-23T03:52:32.820Z,-12.86
2023-02-23T03:55:25.675Z,-12.95
2023-02-23T03:58:20.379Z,-12.97
2023-02-23T04:01:12.175Z,-12.79
2023-02-23T04:04:04.218Z,-12.83
2023-02-23T04:06:57.210Z,-12.87
2023-02-23T04:09:48.220Z,-12.95
2023-02-23T04:12:47.752Z,-12.97
2023-02-23T04:15:39.657Z,-13.03
2023-02-23T04:18:14.550Z,-13.11
2023-02-23T04:20:46.803Z,-13.14
2023-02-23T04:23:19.122Z,-13.16
2023-02-23T04:25:52.475Z,-13.18
2023-02-23T04:28:26.642Z,-13.14
2023-02-23T04:30:59.021Z,-13.09
2023-02-23T04:33:31.300Z,-13.04
2023-02-23T04:36:03.728Z,-12.98
2023-02-23T04:38:35.685Z,-13.03
2023-02-23T04:41:07.759Z,-13.09
2023-02-23T04:43:40.022Z,-13.07
2023-02-23T04:46:12.250Z,-13.04
2023-02-23T04:48:44.624Z,-13.09
2023-02-23T04:51:17.286Z,-13.10
2023-02-23T04:53:49.313Z,-13.09
2023-02-23T04:56:21.853Z,-13.03
2023-02-23T04:58:54.239Z,-13.06
2023-02-23T05:01:27.303Z,-12.95
2023-02-23T05:04:01.882Z,-12.94
2023-02-23T05:06:34.443Z,-12.99
2023-02-23T05:09:07.073Z,-13.00
2023-02-23T05:11:39.118Z,-12.97
2023-02-23T05:14:12.577Z,-12.98
2023-02-23T05:16:45.303Z,-12.85
2023-02-23T05:19:18.221Z,-12.81
2023-02-23T05:21:50.755Z,-12.67
2023-02-23T05:24:22.804Z,-12.59
2023-02-23T05:26:54.802Z,-12.27
2023-02-23T05:29:27.187Z,-11.83
2023-02-23T05:31:59.587Z,-11.39
2023-02-23T05:34:31.903Z,-11.08
2023-02-23T05:37:04.001Z,-10.99
2023-02-23T05:39:36.243Z,-10.99
2023-02-23T05:42:08.318Z,-10.91
2023-02-23T05:44:40.551Z,-10.64
2023-02-23T05:47:12.670Z,-10.16
2023-02-23T05:49:46.356Z,-9.73
2023-02-23T05:52:18.357Z,-9.26
2023-02-23T05:54:50.371Z,-9.12
2023-02-23T05:57:22.825Z,-9.01
2023-02-23T05:59:54.800Z,-9.03
2023-02-23T06:02:27.217Z,-8.75
2023-02-23T06:04:59.549Z,-8.12
2023-02-23T06:07:33.277Z,-8.18
2023-02-23T06:10:06.038Z,-8.34
2023-02-23T06:12:38.263Z,-8.43
2023-02-23T06:15:10.913Z,-8.47
2023-02-23T06:17:43.528Z,-8.60
2023-02-23T06:20:15.601Z,-8.74
2023-02-23T06:22:48.409Z,-8.46
2023-02-23T06:25:20.395Z,-8.16
2023-02-23T06:27:53.069Z,-7.44
2023-02-23T06:30:25.280Z,-6.94
2023-02-23T06:32:57.693Z,-6.73
2023-02-23T06:35:29.878Z,-6.37
2023-02-23T06:38:02.731Z,-6.11
2023-02-23T06:40:35.698Z,-5.16
2023-02-23T06:43:08.159Z,-4.82
2023-02-23T06:45:41.056Z,-5.25
2023-02-23T06:48:14.013Z,-6.09
2023-02-23T06:50:46.374Z,-6.68
2023-02-23T06:53:18.592Z,-7.33
2023-02-23T06:55:50.857Z,-7.76
2023-02-23T06:58:22.922Z,-8.06
2023-02-23T07:00:57.219Z,-8.20
2023-02-23T07:03:29.134Z,-8.31
2023-02-23T07:06:01.493Z,-8.36
2023-02-23T07:08:34.705Z,-8.36
2023-02-23T07:11:12.077Z,-8.42
2023-02-23T07:13:44.284Z,-8.39
2023-02-23T07:16:16.823Z,-8.31
2023-02-23T07:18:49.108Z,-8.22
2023-02-23T07:21:21.506Z,-8.15
2023-02-23T07:23:53.797Z,-8.16
2023-02-23T07:26:26.654Z,-8.13
2023-02-23T07:28:59.076Z,-8.01
2023-02-23T07:31:31.513Z,-7.92
2023-02-23T07:34:03.715Z,-7.91
2023-02-23T07:36:36.182Z,-7.95
2023-02-23T07:39:08.253Z,-7.87
2023-02-23T07:41:40.631Z,-7.77
2023-02-23T07:44:14.949Z,-7.68
2023-02-23T07:46:47.405Z,-7.71
2023-02-23T07:49:19.603Z,-7.69
2023-02-23T07:51:52.489Z,-7.71
2023-02-23T07:54:25.539Z,-7.68
2023-02-23T07:56:59.500Z,-7.63
2023-02-23T07:59:32.284Z,-7.54
2023-02-23T08:02:04.779Z,-7.49
2023-02-23T08:04:36.809Z,-7.44
2023-02-23T08:07:09.517Z,-7.44
2023-02-23T08:09:41.703Z,-7.36
2023-02-23T08:12:15.529Z,-7.33
2023-02-23T08:14:48.405Z,-7.33
2023-02-23T08:17:20.774Z,-7.34
2023-02-23T08:19:53.046Z,-7.30
2023-02-23T08:22:25.584Z,-7.25
2023-02-23T08:24:57.767Z,-7.11
2023-02-23T08:27:30.041Z,-7.13
2023-02-23T08:30:03.851Z,-7.07
2023-02-23T08:32:36.638Z,-6.96
2023-02-23T08:35:10.752Z,-7.00
2023-02-23T08:37:42.775Z,-6.96
2023-02-23T08:40:17.080Z,-6.93
2023-02-23T08:42:49.602Z,-6.94
2023-02-23T08:45:22.543Z,-6.86
2023-02-23T08:47:56.958Z,-6.77
2023-02-23T08:50:28.915Z,-6.79
2023-02-23T08:53:01.341Z,-6.83
2023-02-23T08:55:35.432Z,-6.85
2023-02-23T08:58:10.940Z,-6.77
2023-02-23T09:00:43.194Z,-6.72
2023-02-23T09:03:15.693Z,-6.67
2023-02-23T09:05:48.207Z,-6.61
2023-02-23T09:08:20.621Z,-6.51
2023-02-23T09:10:53.871Z,-6.53
2023-02-23T09:13:26.051Z,-6.45
2023-02-23T09:15:58.793Z,-6.40
2023-02-23T09:18:32.771Z,-6.39
2023-02-23T09:21:07.663Z,-6.30
2023-02-23T09:23:40.476Z,-6.28
2023-02-23T09:26:12.793Z,-6.25
2023-02-23T09:28:45.579Z,-6.23
2023-02-23T09:31:21.739Z,-6.25
2023-02-23T09:33:55.190Z,-6.19
2023-02-23T09:36:28.990Z,-6.15
2023-02-23T09:39:02.088Z,-6.16
2023-02-23T09:41:58.899Z,-6.15
2023-02-23T09:44:52.153Z,-6.12
2023-02-23T09:47:49.634Z,-6.11
2023-02-23T09:50:31.099Z,-6.01
2023-02-23T09:53:18.204Z,-5.89
2023-02-23T09:55:52.878Z,-5.87
2023-02-23T09:58:27.962Z,-5.92
2023-02-23T10:01:36.129Z,-5.92
2023-02-23T10:04:28.971Z,-5.89
2023-02-23T10:07:04.355Z,-5.79
2023-02-23T10:09:48.204Z,-5.67
2023-02-23T10:12:29.891Z,-5.63
2023-02-23T10:15:10.749Z,-5.52
2023-02-23T10:17:49.297Z,-5.52
2023-02-23T10:20:33.493Z,-5.41
2023-02-23T10:23:06.804Z,-5.48
2023-02-23T10:25:41.786Z,-5.36
2023-02-23T10:28:22.530Z,-5.38
2023-02-23T10:30:56.650Z,-5.42
2023-02-23T10:33:31.933Z,-5.39
2023-02-23T10:36:19.789Z,-5.34
2023-02-23T10:38:52.134Z,-5.35
2023-02-23T10:41:25.484Z,-5.40
2023-02-23T10:44:02.650Z,-5.30
2023-02-23T10:46:34.771Z,-5.21
2023-02-23T10:49:10.282Z,-5.12
2023-02-23T10:51:47.127Z,-5.17
2023-02-23T10:54:38.328Z,-5.11
2023-02-23T10:57:17.234Z,-5.03
2023-02-23T11:00:20.489Z,-5.06
2023-02-23T11:02:53.957Z,-5.14
2023-02-23T11:05:38.619Z,-5.18
2023-02-23T11:08:13.179Z,-5.22
2023-02-23T11:10:57.314Z,-5.29
2023-02-23T11:13:32.502Z,-5.25
2023-02-23T11:16:10.519Z,-5.19
2023-02-23T11:18:51.569Z,-5.11
2023-02-23T11:21:34.164Z,-5.08
2023-02-23T11:24:27.750Z,-5.02
2023-02-23T11:27:03.874Z,-4.99
2023-02-23T11:29:44.802Z,-4.95
2023-02-23T11:32:25.945Z,-4.99
2023-02-23T11:35:19.873Z,-4.95
2023-02-23T11:37:52.344Z,-4.92
2023-02-23T11:40:32.663Z,-4.86
2023-02-23T11:43:10.992Z,-4.88
2023-02-23T11:45:49.662Z,-4.89
2023-02-23T11:48:24.872Z,-4.75
2023-02-23T11:50:58.524Z,-4.89
2023-02-23T11:53:36.805Z,-4.90
2023-02-23T11:56:11.869Z,-4.90
2023-02-23T11:58:54.069Z,-4.83
2023-02-23T12:01:39.902Z,-4.90
2023-02-23T12:04:32.173Z,-4.94
2023-02-23T12:07:33.965Z,-4.95
2023-02-23T12:10:41.989Z,-4.98
2023-02-23T12:13:34.673Z,-4.96
2023-02-23T12:16:11.087Z,-4.91
2023-02-23T12:18:49.666Z,-4.92
2023-02-23T12:21:30.664Z,-4.87
2023-02-23T12:24:17.466Z,-4.94
2023-02-23T12:26:58.270Z,-4.87
2023-02-23T12:29:55.438Z,-4.92
2023-02-23T12:32:30.481Z,-4.88
2023-02-23T12:35:09.574Z,-4.85
2023-02-23T12:37:50.632Z,-4.87
2023-02-23T12:40:31.421Z,-4.82
2023-02-23T12:43:21.044Z,-4.78
2023-02-23T12:46:07.410Z,-4.68
2023-02-23T12:48:48.377Z,-4.78
2023-02-23T12:51:33.423Z,-4.56
2023-02-23T12:54:06.422Z,-4.65
2023-02-23T12:56:50.768Z,-4.60
2023-02-23T12:59:57.448Z,-4.57
2023-02-23T13:02:38.712Z,-4.38
2023-02-23T13:05:24.256Z,-4.21
2023-02-23T13:08:15.638Z,-3.13
2023-02-23T13:11:14.650Z,-1.24
2023-02-23T13:14:01.470Z,0.60
2023-02-23T13:16:39.570Z,1.98
2023-02-23T13:19:29.639Z,3.32
2023-02-23T13:22:19.699Z,4.27
2023-02-23T13:24:54.850Z,4.85
2023-02-23T13:27:34.036Z,5.33
2023-02-23T13:30:08.375Z,5.74
2023-02-23T13:32:41.039Z,5.95
2023-02-23T13:35:18.236Z,6.43
2023-02-23T13:37:59.916Z,6.52
2023-02-23T13:40:41.365Z,6.80
2023-02-23T13:43:28.418Z,7.06
2023-02-23T13:46:22.111Z,7.22
2023-02-23T13:49:12.498Z,7.14
2023-02-23T13:51:56.869Z,7.25
2023-02-23T13:54:36.858Z,5.93
2023-02-23T13:57:15.953Z,4.20
2023-02-23T13:59:48.166Z,2.42
2023-02-23T14:02:41.361Z,0.91
2023-02-23T14:05:29.733Z,-0.14
2023-02-23T14:08:08.888Z,-1.34
2023-02-23T14:10:45.475Z,-2.01
2023-02-23T14:13:21.311Z,-2.48
2023-02-23T14:16:20.977Z,-2.83
2023-02-23T14:19:08.073Z,-3.28
2023-02-23T14:21:50.089Z,-3.84
2023-02-23T14:24:27.811Z,-4.07
2023-02-23T14:27:40.244Z,-4.35
2023-02-23T14:30:14.969Z,-4.62
2023-02-23T14:32:49.534Z,-4.81
2023-02-23T14:35:40.379Z,-5.06
2023-02-23T14:38:15.422Z,-5.25
2023-02-23T14:40:51.672Z,-5.31
2023-02-23T14:43:44.176Z,-5.44
2023-02-23T14:46:25.419Z,-5.55
2023-02-23T14:49:10.634Z,-5.72
2023-02-23T14:51:45.340Z,-5.76
2023-02-23T14:54:35.353Z,-5.82
2023-02-23T14:57:17.894Z,-5.90
2023-02-23T15:00:06.038Z,-5.87
2023-02-23T15:02:45.911Z,-5.92
2023-02-23T15:05:18.181Z,-5.98
2023-02-23T15:07:52.084Z,-6.08
2023-02-23T15:10:36.251Z,-6.12
2023-02-23T15:13:15.213Z,-6.12
2023-02-23T15:15:49.450Z,-6.17
2023-02-23T15:18:27.272Z,-6.22
2023-02-23T15:20:59.415Z,-6.25
2023-02-23T15:23:34.442Z,-6.34
2023-02-23T15:26:26.882Z,-6.39
2023-02-23T15:29:16.639Z,-6.44
2023-02-23T15:31:53.929Z,-6.45
2023-02-23T15:34:28.499Z,-6.43
2023-02-23T15:37:05.034Z,-6.37
2023-02-23T15:39:43.371Z,-6.40
2023-02-23T15:42:19.628Z,-6.47
2023-02-23T15:45:02.403Z,-6.47
2023-02-23T15:47:38.611Z,-6.48
2023-02-23T15:50:21.986Z,-6.61
2023-02-23T15:52:58.449Z,-6.59
2023-02-23T15:55:37.402Z,-6.67
2023-02-23T15:58:16.031Z,-6.71
2023-02-23T16:01:06.499Z,-6.73
2023-02-23T16:03:44.643Z,-6.61
2023-02-23T16:06:26.612Z,-6.79
2023-02-23T16:09:06.693Z,-6.83
2023-02-23T16:11:41.057Z,-6.81
2023-02-23T16:14:17.084Z,-6.82
2023-02-23T16:17:08.470Z,-6.79
2023-02-23T16:19:28.852Z,-6.80
2023-02-23T16:22:01.519Z,-6.79
2023-02-23T16:24:36.271Z,-6.67
2023-02-23T16:27:09.074Z,-6.57
2023-02-23T16:29:43.674Z,-6.67
2023-02-23T16:32:24.701Z,-6.66
2023-02-23T16:35:00.552Z,-6.75
2023-02-23T16:37:34.329Z,-6.78
2023-02-23T16:40:08.502Z,-6.71
2023-02-23T16:42:41.738Z,-6.78
2023-02-23T16:45:18.281Z,-6.73
2023-02-23T16:47:52.825Z,-6.72
2023-02-23T16:50:37.335Z,-6.60
2023-02-23T16:53:11.759Z,-6.53
2023-02-23T16:55:46.843Z,-6.41
2023-02-23T16:58:23.802Z,-6.40
2023-02-23T17:00:56.665Z,-6.45
2023-02-23T17:03:32.623Z,-6.49
2023-02-23T17:06:08.649Z,-6.49
2023-02-23T17:08:52.156Z,-6.46
2023-02-23T17:11:18.390Z,-6.55
2023-02-23T17:13:51.402Z,-6.49
2023-02-23T17:16:24.667Z,-6.49
2023-02-23T17:18:59.154Z,-6.53
2023-02-23T17:21:34.110Z,-6.48
2023-02-23T17:24:07.539Z,-6.42
2023-02-23T17:26:43.851Z,-6.58
2023-02-23T17:29:20.119Z,-6.53
2023-02-23T17:31:53.696Z,-6.51
2023-02-23T17:34:26.512Z,-6.50
2023-02-23T17:36:59.274Z,-6.67
2023-02-23T17:39:32.229Z,-6.69
2023-02-23T17:42:04.449Z,-6.74
2023-02-23T17:44:39.681Z,-6.66
2023-02-23T17:47:12.722Z,-6.70
2023-02-23T17:49:45.185Z,-6.78
2023-02-23T17:52:19.284Z,-6.75
2023-02-23T17:54:53.540Z,-6.86
2023-02-23T17:57:27.430Z,-6.89
2023-02-23T17:59:59.984Z,-6.93
2023-02-23T18:02:35.202Z,-6.96
2023-02-23T18:05:09.093Z,-6.98
2023-02-23T18:07:43.519Z,-6.84
2023-02-23T18:10:17.591Z,-6.96
2023-02-23T18:12:50.159Z,-6.81
2023-02-23T18:15:23.418Z,-6.82
2023-02-23T18:17:57.901Z,-6.87
2023-02-23T18:20:31.415Z,-6.94
2023-02-23T18:23:04.042Z,-6.97
2023-02-23T18:25:37.715Z,-7.03
2023-02-23T18:28:12.029Z,-7.05
2023-02-23T18:30:45.697Z,-7.00
2023-02-23T18:33:20.813Z,-7.09
2023-02-23T18:35:53.642Z,-7.16
2023-02-23T18:38:27.030Z,-7.21
2023-02-23T18:40:59.517Z,-7.19
2023-02-23T18:43:31.922Z,-7.19
2023-02-23T18:46:13.054Z,-7.18
2023-02-23T18:48:46.016Z,-7.20
2023-02-23T18:51:21.774Z,-7.12
2023-02-23T18:54:02.910Z,-7.12
2023-02-23T18:56:38.066Z,-7.10
2023-02-23T18:59:10.442Z,-7.01
2023-02-23T19:01:46.291Z,-7.12
2023-02-23T19:04:25.278Z,-7.02
2023-02-23T19:06:57.473Z,-6.93
2023-02-23T19:09:30.187Z,-7.09
2023-02-23T19:12:05.956Z,-7.17
2023-02-23T19:14:53.080Z,-7.20
2023-02-23T19:17:31.080Z,-7.21
2023-02-23T19:20:16.831Z,-7.17
2023-02-23T19:22:50.069Z,-7.17
2023-02-23T19:25:23.695Z,-7.15
2023-02-23T19:27:57.990Z,-7.10
2023-02-23T19:30:36.797Z,-7.18
2023-02-23T19:33:08.991Z,-7.17
2023-02-23T19:35:42.345Z,-7.21
2023-02-23T19:38:16.075Z,-7.01
2023-02-23T19:40:47.517Z,-7.03
2023-02-23T19:43:19.544Z,-7.05
2023-02-23T19:45:51.950Z,-7.06
2023-02-23T19:48:25.425Z,-7.07
2023-02-23T19:50:57.736Z,-7.11
2023-02-23T19:53:30.528Z,-7.15
2023-02-23T19:56:04.884Z,-7.21
2023-02-23T19:58:37.502Z,-7.13
2023-02-23T20:01:12.030Z,-7.11
2023-02-23T20:03:45.508Z,-7.05
2023-02-23T20:06:19.038Z,-7.08
2023-02-23T20:08:51.407Z,-7.11
2023-02-23T20:11:24.177Z,-7.05
2023-02-23T20:13:58.102Z,-7.19
2023-02-23T20:16:30.176Z,-7.25
2023-02-23T20:19:03.982Z,-7.17
2023-02-23T20:21:37.053Z,-7.17
2023-02-23T20:24:09.408Z,-7.12
2023-02-23T20:26:41.961Z,-7.03
2023-02-23T20:29:19.140Z,-7.02
2023-02-23T20:31:52.997Z,-6.99
2023-02-23T20:34:25.591Z,-6.98
2023-02-23T20:36:58.135Z,-6.87
2023-02-23T20:39:30.327Z,-6.89
2023-02-23T20:42:02.600Z,-6.98
2023-02-23T20:44:35.244Z,-6.94
2023-02-23T20:47:09.448Z,-6.99
2023-02-23T20:49:41.453Z,-6.89
2023-02-23T20:52:13.681Z,-6.89
2023-02-23T20:54:45.837Z,-6.90
2023-02-23T20:57:17.845Z,-6.89
2023-02-23T20:59:49.945Z,-6.97
2023-02-23T21:02:22.358Z,-6.89
2023-02-23T21:04:54.680Z,-6.82
2023-02-23T21:07:27.249Z,-6.90
2023-02-23T21:10:01.999Z,-6.82
2023-02-23T21:12:34.327Z,-6.88
2023-02-23T21:15:07.161Z,-6.87
2023-02-23T21:17:40.661Z,-6.83
2023-02-23T21:20:15.900Z,-6.71
2023-02-23T21:22:51.247Z,-6.86
2023-02-23T21:25:25.959Z,-6.86
2023-02-23T21:27:59.731Z,-6.67
2023-02-23T21:30:32.350Z,-6.73
2023-02-23T21:33:04.839Z,-6.82
2023-02-23T21:35:38.694Z,-6.81
2023-02-23T21:38:10.987Z,-6.76
2023-02-23T21:40:43.057Z,-6.69
2023-02-23T21:43:15.237Z,-6.68
2023-02-23T21:45:47.434Z,-6.68
2023-02-23T21:48:19.495Z,-6.65
2023-02-23T21:50:52.626Z,-6.57
2023-02-23T21:53:24.954Z,-6.58
2023-02-23T21:55:57.952Z,-6.51
2023-02-23T21:58:30.132Z,-6.58
2023-02-23T22:01:02.329Z,-6.53
2023-02-23T22:03:34.147Z,-6.47
2023-02-23T22:06:06.402Z,-6.49
2023-02-23T22:08:39.887Z,-6.49
2023-02-23T22:11:17.313Z,-6.50
2023-02-23T22:13:52.041Z,-6.47
2023-02-23T22:16:24.141Z,-6.43
2023-02-23T22:18:56.324Z,-6.47
2023-02-23T22:21:28.828Z,-6.47
2023-02-23T22:24:03.209Z,-6.41
2023-02-23T22:26:37.549Z,-6.38
2023-02-23T22:29:11.432Z,-6.32
2023-02-23T22:31:43.582Z,-6.30
2023-02-23T22:34:18.202Z,-6.30
2023-02-23T22:36:50.640Z,-6.30
2023-02-23T22:39:22.632Z,-6.32
2023-02-23T22:41:54.697Z,-6.30
2023-02-23T22:44:26.906Z,-6.27
2023-02-23T22:46:59.094Z,-6.27
2023-02-23T22:49:31.362Z,-6.24
2023-02-23T22:52:03.604Z,-6.19
2023-02-23T22:54:37.380Z,-6.22
2023-02-23T22:57:09.882Z,-6.18
2023-02-23T22:59:43.800Z,-6.20
2023-02-23T23:02:15.929Z,-6.17
2023-02-23T23:04:48.404Z,-6.14
2023-02-23T23:07:20.807Z,-6.05
2023-02-23T23:09:53.251Z,-6.07
2023-02-23T23:12:28.755Z,-6.03
2023-02-23T23:15:01.495Z,-6.06
2023-02-23T23:17:35.297Z,-6.05
2023-02-23T23:20:09.806Z,-5.97
2023-02-23T23:22:42.153Z,-6.02
2023-02-23T23:25:18.801Z,-6.03
2023-02-23T23:27:54.571Z,-5.98
2023-02-23T23:30:28.214Z,-6.01
2023-02-23T23:33:01.087Z,-6.00
2023-02-23T23:35:34.439Z,-5.92
2023-02-23T23:38:08.263Z,-6.00
2023-02-23T23:40:41.694Z,-5.99
2023-02-23T23:43:14.076Z,-6.04
2023-02-23T23:45:46.921Z,-6.04
2023-02-23T23:48:20.681Z,-6.02
2023-02-23T23:50:52.917Z,-5.97
2023-02-23T23:53:25.691Z,-6.00
2023-02-23T23:55:57.824Z,-6.02
2023-02-23T23:58:29.857Z,-6.06
